sensor_id;sensor_type;location;lat;lon;timestamp;temperature;humidity
67358;HTU21D;54240;51.096;5.878;2022-12-29T00:00:10;11.12;118.99
67358;HTU21D;54240;51.096;5.878;2022-12-29T00:02:40;11.15;118.99
67358;HTU21D;54240;51.096;5.878;2022-12-29T00:05:06;10.99;118.99
67358;HTU21D;54240;51.096;5.878;2022-12-29T00:07:32;10.85;118.99
67358;HTU21D;54240;51.096;5.878;2022-12-29T00:09:58;10.95;118.99
67358;HTU21D;54240;51.096;5.878;2022-12-29T00:12:24;10.73;118.99
67358;HTU21D;54240;51.096;5.878;2022-12-29T00:14:50;10.70;118.99
67358;HTU21D;54240;51.096;5.878;2022-12-29T00:17:34;10.74;118.99
67358;HTU21D;54240;51.096;5.878;2022-12-29T00:20:00;10.71;118.99
67358;HTU21D;54240;51.096;5.878;2022-12-29T00:22:44;10.63;118.99
67358;HTU21D;54240;51.096;5.878;2022-12-29T00:25:28;10.64;118.99
67358;HTU21D;54240;51.096;5.878;2022-12-29T00:28:13;10.69;118.99
67358;HTU21D;54240;51.096;5.878;2022-12-29T00:31:01;10.83;118.99
67358;HTU21D;54240;51.096;5.878;2022-12-29T00:33:45;10.97;118.99
67358;HTU21D;54240;51.096;5.878;2022-12-29T00:36:39;11.10;118.99
67358;HTU21D;54240;51.096;5.878;2022-12-29T00:39:16;11.22;118.99
67358;HTU21D;54240;51.096;5.878;2022-12-29T00:42:06;11.40;118.99
67358;HTU21D;54240;51.096;5.878;2022-12-29T00:44:51;11.56;118.99
67358;HTU21D;54240;51.096;5.878;2022-12-29T00:47:17;11.67;118.99
67358;HTU21D;54240;51.096;5.878;2022-12-29T00:49:42;11.72;118.99
67358;HTU21D;54240;51.096;5.878;2022-12-29T00:52:12;11.74;118.99
67358;HTU21D;54240;51.096;5.878;2022-12-29T00:54:40;11.83;118.99
67358;HTU21D;54240;51.096;5.878;2022-12-29T00:57:08;11.88;118.99
67358;HTU21D;54240;51.096;5.878;2022-12-29T00:59:39;11.87;118.99
67358;HTU21D;54240;51.096;5.878;2022-12-29T01:02:06;11.97;118.99
67358;HTU21D;54240;51.096;5.878;2022-12-29T01:04:33;11.94;118.99
67358;HTU21D;54240;51.096;5.878;2022-12-29T01:06:59;11.98;118.99
67358;HTU21D;54240;51.096;5.878;2022-12-29T01:09:25;12.03;118.99
67358;HTU21D;54240;51.096;5.878;2022-12-29T01:12:10;11.91;118.99
67358;HTU21D;54240;51.096;5.878;2022-12-29T01:14:38;11.90;118.99
67358;HTU21D;54240;51.096;5.878;2022-12-29T01:17:04;11.86;118.99
67358;HTU21D;54240;51.096;5.878;2022-12-29T01:19:32;11.75;118.99
67358;HTU21D;54240;51.096;5.878;2022-12-29T01:21:58;11.74;118.99
67358;HTU21D;54240;51.096;5.878;2022-12-29T01:24:24;11.67;118.99
67358;HTU21D;54240;51.096;5.878;2022-12-29T01:26:51;11.68;118.99
67358;HTU21D;54240;51.096;5.878;2022-12-29T01:29:18;11.69;118.99
67358;HTU21D;54240;51.096;5.878;2022-12-29T01:31:45;11.76;118.99
67358;HTU21D;54240;51.096;5.878;2022-12-29T01:34:11;11.78;118.99
67358;HTU21D;54240;51.096;5.878;2022-12-29T01:36:37;11.87;118.99
67358;HTU21D;54240;51.096;5.878;2022-12-29T01:39:03;11.85;118.99
67358;HTU21D;54240;51.096;5.878;2022-12-29T01:41:29;11.82;118.99
67358;HTU21D;54240;51.096;5.878;2022-12-29T01:43:57;11.85;118.99
67358;HTU21D;54240;51.096;5.878;2022-12-29T01:46:31;11.90;118.99
67358;HTU21D;54240;51.096;5.878;2022-12-29T01:51:47;11.87;118.99
67358;HTU21D;54240;51.096;5.878;2022-12-29T01:54:27;11.89;118.99
67358;HTU21D;54240;51.096;5.878;2022-12-29T01:56:59;11.87;118.99
67358;HTU21D;54240;51.096;5.878;2022-12-29T01:59:41;11.86;118.99
67358;HTU21D;54240;51.096;5.878;2022-12-29T02:02:10;11.82;118.99
67358;HTU21D;54240;51.096;5.878;2022-12-29T02:04:41;11.81;118.99
67358;HTU21D;54240;51.096;5.878;2022-12-29T02:07:18;11.93;118.99
67358;HTU21D;54240;51.096;5.878;2022-12-29T02:09:47;11.90;118.99
67358;HTU21D;54240;51.096;5.878;2022-12-29T02:12:16;12.02;118.99
67358;HTU21D;54240;51.096;5.878;2022-12-29T02:14:43;12.08;118.99
67358;HTU21D;54240;51.096;5.878;2022-12-29T02:26:12;11.73;118.99
67358;HTU21D;54240;51.096;5.878;2022-12-29T02:31:31;11.47;118.99
67358;HTU21D;54240;51.096;5.878;2022-12-29T02:34:40;11.53;118.99
67358;HTU21D;54240;51.096;5.878;2022-12-29T02:37:24;11.49;118.99
67358;HTU21D;54240;51.096;5.878;2022-12-29T02:48:15;11.72;118.99
67358;HTU21D;54240;51.096;5.878;2022-12-29T02:51:15;11.85;118.99
67358;HTU21D;54240;51.096;5.878;2022-12-29T02:53:45;11.88;118.99
67358;HTU21D;54240;51.096;5.878;2022-12-29T02:56:30;11.78;118.99
67358;HTU21D;54240;51.096;5.878;2022-12-29T02:58:57;11.68;118.99
67358;HTU21D;54240;51.096;5.878;2022-12-29T03:01:26;11.73;118.99
67358;HTU21D;54240;51.096;5.878;2022-12-29T03:07:00;11.83;118.99
67358;HTU21D;54240;51.096;5.878;2022-12-29T03:15:27;11.87;118.99
67358;HTU21D;54240;51.096;5.878;2022-12-29T03:18:14;11.91;118.99
67358;HTU21D;54240;51.096;5.878;2022-12-29T03:23:45;11.92;118.99
67358;HTU21D;54240;51.096;5.878;2022-12-29T03:26:16;11.91;118.99
67358;HTU21D;54240;51.096;5.878;2022-12-29T03:28:52;11.92;118.99
67358;HTU21D;54240;51.096;5.878;2022-12-29T03:31:23;11.97;118.99
67358;HTU21D;54240;51.096;5.878;2022-12-29T03:33:51;12.02;118.99
67358;HTU21D;54240;51.096;5.878;2022-12-29T03:36:32;12.05;118.99
67358;HTU21D;54240;51.096;5.878;2022-12-29T03:39:12;12.02;118.99
67358;HTU21D;54240;51.096;5.878;2022-12-29T03:41:42;11.89;118.99
67358;HTU21D;54240;51.096;5.878;2022-12-29T03:44:12;11.92;118.99
67358;HTU21D;54240;51.096;5.878;2022-12-29T03:46:38;11.85;118.99
67358;HTU21D;54240;51.096;5.878;2022-12-29T03:49:04;11.92;118.99
67358;HTU21D;54240;51.096;5.878;2022-12-29T03:51:30;11.99;118.99
67358;HTU21D;54240;51.096;5.878;2022-12-29T03:53:56;12.03;118.99
67358;HTU21D;54240;51.096;5.878;2022-12-29T03:56:22;12.11;118.99
67358;HTU21D;54240;51.096;5.878;2022-12-29T03:58:49;12.16;118.99
67358;HTU21D;54240;51.096;5.878;2022-12-29T04:01:20;12.15;118.99
67358;HTU21D;54240;51.096;5.878;2022-12-29T04:03:46;12.19;118.99
67358;HTU21D;54240;51.096;5.878;2022-12-29T04:06:12;12.14;118.99
67358;HTU21D;54240;51.096;5.878;2022-12-29T04:08:44;12.10;118.99
67358;HTU21D;54240;51.096;5.878;2022-12-29T04:11:10;12.17;118.99
67358;HTU21D;54240;51.096;5.878;2022-12-29T04:13:36;12.15;118.99
67358;HTU21D;54240;51.096;5.878;2022-12-29T04:16:03;12.15;118.99
67358;HTU21D;54240;51.096;5.878;2022-12-29T04:18:29;12.20;118.99
67358;HTU21D;54240;51.096;5.878;2022-12-29T04:20:54;12.12;118.99
67358;HTU21D;54240;51.096;5.878;2022-12-29T04:23:30;12.11;118.99
67358;HTU21D;54240;51.096;5.878;2022-12-29T04:25:56;12.12;118.99
67358;HTU21D;54240;51.096;5.878;2022-12-29T04:28:22;12.13;118.99
67358;HTU21D;54240;51.096;5.878;2022-12-29T04:30:54;12.11;118.99
67358;HTU21D;54240;51.096;5.878;2022-12-29T04:33:23;12.21;118.99
67358;HTU21D;54240;51.096;5.878;2022-12-29T04:35:50;12.18;118.99
67358;HTU21D;54240;51.096;5.878;2022-12-29T04:38:16;12.12;118.99
67358;HTU21D;54240;51.096;5.878;2022-12-29T04:40:43;11.83;118.99
67358;HTU21D;54240;51.096;5.878;2022-12-29T04:43:10;11.10;118.99
67358;HTU21D;54240;51.096;5.878;2022-12-29T04:45:57;10.88;118.99
67358;HTU21D;54240;51.096;5.878;2022-12-29T04:48:28;10.81;118.99
67358;HTU21D;54240;51.096;5.878;2022-12-29T04:51:10;10.90;118.99
67358;HTU21D;54240;51.096;5.878;2022-12-29T04:53:38;10.82;118.99
67358;HTU21D;54240;51.096;5.878;2022-12-29T04:56:04;10.83;118.99
67358;HTU21D;54240;51.096;5.878;2022-12-29T04:58:31;10.69;118.99
67358;HTU21D;54240;51.096;5.878;2022-12-29T05:00:58;10.59;118.99
67358;HTU21D;54240;51.096;5.878;2022-12-29T05:03:27;10.58;118.99
67358;HTU21D;54240;51.096;5.878;2022-12-29T05:05:55;10.64;118.99
67358;HTU21D;54240;51.096;5.878;2022-12-29T05:08:22;10.60;118.99
67358;HTU21D;54240;51.096;5.878;2022-12-29T05:10:50;10.62;118.99
67358;HTU21D;54240;51.096;5.878;2022-12-29T05:13:17;10.65;118.99
67358;HTU21D;54240;51.096;5.878;2022-12-29T05:15:51;10.58;118.99
67358;HTU21D;54240;51.096;5.878;2022-12-29T05:18:18;10.72;118.99
67358;HTU21D;54240;51.096;5.878;2022-12-29T05:20:44;10.71;118.99
67358;HTU21D;54240;51.096;5.878;2022-12-29T05:23:10;10.69;118.99
67358;HTU21D;54240;51.096;5.878;2022-12-29T05:25:37;10.77;118.99
67358;HTU21D;54240;51.096;5.878;2022-12-29T05:28:21;10.79;118.99
67358;HTU21D;54240;51.096;5.878;2022-12-29T05:30:50;10.83;118.99
67358;HTU21D;54240;51.096;5.878;2022-12-29T05:33:18;10.85;118.99
67358;HTU21D;54240;51.096;5.878;2022-12-29T05:35:45;10.89;118.99
67358;HTU21D;54240;51.096;5.878;2022-12-29T05:38:12;11.00;118.99
67358;HTU21D;54240;51.096;5.878;2022-12-29T05:40:38;11.16;118.99
67358;HTU21D;54240;51.096;5.878;2022-12-29T05:43:13;11.19;118.99
67358;HTU21D;54240;51.096;5.878;2022-12-29T05:45:52;11.33;118.99
67358;HTU21D;54240;51.096;5.878;2022-12-29T05:48:36;11.41;118.99
67358;HTU21D;54240;51.096;5.878;2022-12-29T05:51:24;11.53;118.99
67358;HTU21D;54240;51.096;5.878;2022-12-29T05:53:52;11.49;118.99
67358;HTU21D;54240;51.096;5.878;2022-12-29T05:56:18;11.62;118.99
67358;HTU21D;54240;51.096;5.878;2022-12-29T05:58:49;11.73;118.99
67358;HTU21D;54240;51.096;5.878;2022-12-29T06:01:15;11.69;118.99
67358;HTU21D;54240;51.096;5.878;2022-12-29T06:03:41;11.76;118.99
67358;HTU21D;54240;51.096;5.878;2022-12-29T06:06:07;11.71;118.99
67358;HTU21D;54240;51.096;5.878;2022-12-29T06:08:33;11.83;118.99
67358;HTU21D;54240;51.096;5.878;2022-12-29T06:10:59;11.84;118.99
67358;HTU21D;54240;51.096;5.878;2022-12-29T06:13:25;11.81;118.99
67358;HTU21D;54240;51.096;5.878;2022-12-29T06:15:51;11.87;118.99
67358;HTU21D;54240;51.096;5.878;2022-12-29T06:18:17;11.74;118.99
67358;HTU21D;54240;51.096;5.878;2022-12-29T06:20:44;11.77;118.99
67358;HTU21D;54240;51.096;5.878;2022-12-29T06:23:10;11.79;118.99
67358;HTU21D;54240;51.096;5.878;2022-12-29T06:25:37;11.79;118.99
67358;HTU21D;54240;51.096;5.878;2022-12-29T06:28:03;11.76;118.99
67358;HTU21D;54240;51.096;5.878;2022-12-29T06:30:31;11.90;118.99
67358;HTU21D;54240;51.096;5.878;2022-12-29T06:32:59;11.84;118.99
67358;HTU21D;54240;51.096;5.878;2022-12-29T06:35:25;11.73;118.99
67358;HTU21D;54240;51.096;5.878;2022-12-29T06:37:51;11.85;118.99
67358;HTU21D;54240;51.096;5.878;2022-12-29T06:40:17;11.86;118.99
67358;HTU21D;54240;51.096;5.878;2022-12-29T06:43:06;11.77;118.99
67358;HTU21D;54240;51.096;5.878;2022-12-29T06:45:41;11.73;118.99
67358;HTU21D;54240;51.096;5.878;2022-12-29T06:48:08;11.71;118.99
67358;HTU21D;54240;51.096;5.878;2022-12-29T06:50:34;11.73;118.99
67358;HTU21D;54240;51.096;5.878;2022-12-29T06:53:00;11.72;118.99
67358;HTU21D;54240;51.096;5.878;2022-12-29T06:55:25;11.67;118.99
67358;HTU21D;54240;51.096;5.878;2022-12-29T06:57:54;11.54;118.99
67358;HTU21D;54240;51.096;5.878;2022-12-29T07:00:20;11.55;118.99
67358;HTU21D;54240;51.096;5.878;2022-12-29T07:02:46;11.42;118.99
67358;HTU21D;54240;51.096;5.878;2022-12-29T07:05:12;11.42;118.99
67358;HTU21D;54240;51.096;5.878;2022-12-29T07:07:39;11.43;118.99
67358;HTU21D;54240;51.096;5.878;2022-12-29T07:10:05;11.48;118.99
67358;HTU21D;54240;51.096;5.878;2022-12-29T07:12:31;11.56;118.99
67358;HTU21D;54240;51.096;5.878;2022-12-29T07:14:57;11.70;118.99
67358;HTU21D;54240;51.096;5.878;2022-12-29T07:17:22;11.49;118.99
67358;HTU21D;54240;51.096;5.878;2022-12-29T07:19:48;11.67;118.99
67358;HTU21D;54240;51.096;5.878;2022-12-29T07:22:14;11.60;118.99
67358;HTU21D;54240;51.096;5.878;2022-12-29T07:24:40;11.47;118.99
67358;HTU21D;54240;51.096;5.878;2022-12-29T07:27:05;11.49;118.99
67358;HTU21D;54240;51.096;5.878;2022-12-29T07:29:31;11.38;118.99
67358;HTU21D;54240;51.096;5.878;2022-12-29T07:31:57;11.56;118.99
67358;HTU21D;54240;51.096;5.878;2022-12-29T07:34:23;11.39;118.99
67358;HTU21D;54240;51.096;5.878;2022-12-29T07:36:49;11.32;118.99
67358;HTU21D;54240;51.096;5.878;2022-12-29T07:39:14;11.41;118.99
67358;HTU21D;54240;51.096;5.878;2022-12-29T07:41:40;11.33;118.99
67358;HTU21D;54240;51.096;5.878;2022-12-29T07:44:10;11.29;118.99
67358;HTU21D;54240;51.096;5.878;2022-12-29T07:46:55;11.39;118.99
67358;HTU21D;54240;51.096;5.878;2022-12-29T07:49:20;11.36;118.99
67358;HTU21D;54240;51.096;5.878;2022-12-29T07:51:46;11.47;118.99
67358;HTU21D;54240;51.096;5.878;2022-12-29T07:54:12;11.48;118.99
67358;HTU21D;54240;51.096;5.878;2022-12-29T07:56:38;11.34;118.99
67358;HTU21D;54240;51.096;5.878;2022-12-29T07:59:04;11.16;118.99
67358;HTU21D;54240;51.096;5.878;2022-12-29T08:01:30;11.03;118.99
67358;HTU21D;54240;51.096;5.878;2022-12-29T08:03:56;11.03;118.99
67358;HTU21D;54240;51.096;5.878;2022-12-29T08:06:22;10.92;118.99
67358;HTU21D;54240;51.096;5.878;2022-12-29T08:08:48;10.94;118.99
67358;HTU21D;54240;51.096;5.878;2022-12-29T08:11:13;10.89;118.99
67358;HTU21D;54240;51.096;5.878;2022-12-29T08:13:39;10.89;118.99
67358;HTU21D;54240;51.096;5.878;2022-12-29T08:16:05;10.92;118.99
67358;HTU21D;54240;51.096;5.878;2022-12-29T08:18:31;10.86;118.99
67358;HTU21D;54240;51.096;5.878;2022-12-29T08:21:04;10.98;118.99
67358;HTU21D;54240;51.096;5.878;2022-12-29T08:23:30;11.14;118.99
67358;HTU21D;54240;51.096;5.878;2022-12-29T08:26:04;11.12;118.99
67358;HTU21D;54240;51.096;5.878;2022-12-29T08:28:31;11.09;118.99
67358;HTU21D;54240;51.096;5.878;2022-12-29T08:30:58;11.08;118.99
67358;HTU21D;54240;51.096;5.878;2022-12-29T08:33:25;11.07;118.99
67358;HTU21D;54240;51.096;5.878;2022-12-29T08:35:51;11.09;118.99
67358;HTU21D;54240;51.096;5.878;2022-12-29T08:38:17;11.07;118.99
67358;HTU21D;54240;51.096;5.878;2022-12-29T08:40:43;11.24;118.99
67358;HTU21D;54240;51.096;5.878;2022-12-29T08:43:09;11.34;118.99
67358;HTU21D;54240;51.096;5.878;2022-12-29T08:45:35;11.49;118.99
67358;HTU21D;54240;51.096;5.878;2022-12-29T08:48:01;11.59;118.99
67358;HTU21D;54240;51.096;5.878;2022-12-29T08:50:27;11.87;118.99
67358;HTU21D;54240;51.096;5.878;2022-12-29T08:52:53;11.81;118.99
67358;HTU21D;54240;51.096;5.878;2022-12-29T08:55:19;11.66;118.99
67358;HTU21D;54240;51.096;5.878;2022-12-29T08:57:45;11.64;118.99
67358;HTU21D;54240;51.096;5.878;2022-12-29T09:00:15;11.57;118.99
67358;HTU21D;54240;51.096;5.878;2022-12-29T09:02:41;11.49;118.99
67358;HTU21D;54240;51.096;5.878;2022-12-29T09:05:07;11.41;118.99
67358;HTU21D;54240;51.096;5.878;2022-12-29T09:07:33;11.55;118.99
67358;HTU21D;54240;51.096;5.878;2022-12-29T09:09:59;11.51;118.99
67358;HTU21D;54240;51.096;5.878;2022-12-29T09:12:25;11.47;118.99
67358;HTU21D;54240;51.096;5.878;2022-12-29T09:14:51;11.45;118.99
67358;HTU21D;54240;51.096;5.878;2022-12-29T09:17:17;11.46;118.99
67358;HTU21D;54240;51.096;5.878;2022-12-29T09:20:02;11.43;118.99
67358;HTU21D;54240;51.096;5.878;2022-12-29T09:22:28;11.44;118.99
67358;HTU21D;54240;51.096;5.878;2022-12-29T09:24:53;11.39;118.99
67358;HTU21D;54240;51.096;5.878;2022-12-29T09:27:19;11.39;118.99
67358;HTU21D;54240;51.096;5.878;2022-12-29T09:29:45;11.40;118.99
67358;HTU21D;54240;51.096;5.878;2022-12-29T09:32:11;11.37;118.99
67358;HTU21D;54240;51.096;5.878;2022-12-29T09:34:37;11.41;118.99
67358;HTU21D;54240;51.096;5.878;2022-12-29T09:37:02;11.51;118.99
67358;HTU21D;54240;51.096;5.878;2022-12-29T09:39:28;11.58;118.99
67358;HTU21D;54240;51.096;5.878;2022-12-29T09:45:18;11.39;118.99
67358;HTU21D;54240;51.096;5.878;2022-12-29T09:47:46;11.49;118.99
67358;HTU21D;54240;51.096;5.878;2022-12-29T09:50:26;11.42;118.99
67358;HTU21D;54240;51.096;5.878;2022-12-29T09:53:17;11.45;118.99
67358;HTU21D;54240;51.096;5.878;2022-12-29T09:55:52;11.38;118.99
67358;HTU21D;54240;51.096;5.878;2022-12-29T09:58:22;11.41;118.99
67358;HTU21D;54240;51.096;5.878;2022-12-29T10:01:04;11.47;118.99
67358;HTU21D;54240;51.096;5.878;2022-12-29T10:03:49;11.41;118.99
67358;HTU21D;54240;51.096;5.878;2022-12-29T10:06:26;11.46;118.99
67358;HTU21D;54240;51.096;5.878;2022-12-29T10:09:02;11.54;118.99
67358;HTU21D;54240;51.096;5.878;2022-12-29T10:17:05;11.46;118.99
67358;HTU21D;54240;51.096;5.878;2022-12-29T10:24:55;11.67;118.99
67358;HTU21D;54240;51.096;5.878;2022-12-29T10:27:30;11.72;118.99
67358;HTU21D;54240;51.096;5.878;2022-12-29T10:29:59;11.75;118.99
67358;HTU21D;54240;51.096;5.878;2022-12-29T10:35:18;11.77;111.58
67358;HTU21D;54240;51.096;5.878;2022-12-29T10:38:01;11.79;100.51
67358;HTU21D;54240;51.096;5.878;2022-12-29T10:40:39;11.87;107.62
67358;HTU21D;54240;51.096;5.878;2022-12-29T10:43:27;11.86;97.32
67358;HTU21D;54240;51.096;5.878;2022-12-29T10:46:07;11.97;94.23
67358;HTU21D;54240;51.096;5.878;2022-12-29T10:48:35;11.87;85.65
67358;HTU21D;54240;51.096;5.878;2022-12-29T10:51:05;11.88;95.68
67358;HTU21D;54240;51.096;5.878;2022-12-29T10:53:47;11.82;92.66
67358;HTU21D;54240;51.096;5.878;2022-12-29T10:56:31;11.77;101.67
67358;HTU21D;54240;51.096;5.878;2022-12-29T10:59:44;11.78;110.09
67358;HTU21D;54240;51.096;5.878;2022-12-29T11:05:03;11.86;106.21
67358;HTU21D;54240;51.096;5.878;2022-12-29T11:07:33;11.82;117.19
67358;HTU21D;54240;51.096;5.878;2022-12-29T11:10:28;11.71;118.23
67358;HTU21D;54240;51.096;5.878;2022-12-29T11:13:02;11.75;109.35
67358;HTU21D;54240;51.096;5.878;2022-12-29T11:15:40;11.71;118.08
67358;HTU21D;54240;51.096;5.878;2022-12-29T11:20:43;11.87;107.01
67358;HTU21D;54240;51.096;5.878;2022-12-29T11:26:25;11.71;118.99
67358;HTU21D;54240;51.096;5.878;2022-12-29T11:29:08;11.88;114.40
67358;HTU21D;54240;51.096;5.878;2022-12-29T11:31:54;11.82;111.43
67358;HTU21D;54240;51.096;5.878;2022-12-29T11:34:24;11.83;118.99
67358;HTU21D;54240;51.096;5.878;2022-12-29T11:37:18;11.79;118.81
67358;HTU21D;54240;51.096;5.878;2022-12-29T11:42:20;11.74;115.60
67358;HTU21D;54240;51.096;5.878;2022-12-29T11:44:49;11.70;118.83
67358;HTU21D;54240;51.096;5.878;2022-12-29T11:47:27;11.90;118.99
67358;HTU21D;54240;51.096;5.878;2022-12-29T11:50:01;11.79;113.45
67358;HTU21D;54240;51.096;5.878;2022-12-29T11:52:35;11.74;115.63
67358;HTU21D;54240;51.096;5.878;2022-12-29T11:55:04;11.75;118.66
67358;HTU21D;54240;51.096;5.878;2022-12-29T11:57:34;11.83;118.99
67358;HTU21D;54240;51.096;5.878;2022-12-29T12:00:09;11.78;108.89
67358;HTU21D;54240;51.096;5.878;2022-12-29T12:02:46;11.73;118.99
67358;HTU21D;54240;51.096;5.878;2022-12-29T12:11:06;11.91;110.77
67358;HTU21D;54240;51.096;5.878;2022-12-29T12:16:41;11.77;118.99
67358;HTU21D;54240;51.096;5.878;2022-12-29T12:20:00;11.87;118.99
67358;HTU21D;54240;51.096;5.878;2022-12-29T12:22:45;11.75;118.99
67358;HTU21D;54240;51.096;5.878;2022-12-29T12:25:28;11.82;118.99
67358;HTU21D;54240;51.096;5.878;2022-12-29T12:28:02;11.76;118.99
67358;HTU21D;54240;51.096;5.878;2022-12-29T12:30:39;11.73;118.99
67358;HTU21D;54240;51.096;5.878;2022-12-29T12:33:35;11.76;118.99
67358;HTU21D;54240;51.096;5.878;2022-12-29T12:39:12;11.75;118.99
67358;HTU21D;54240;51.096;5.878;2022-12-29T12:50:15;12.66;54.31
67358;HTU21D;54240;51.096;5.878;2022-12-29T13:01:28;12.15;66.42
67358;HTU21D;54240;51.096;5.878;2022-12-29T13:10:12;12.00;88.20
67358;HTU21D;54240;51.096;5.878;2022-12-29T13:12:53;12.04;90.31
67358;HTU21D;54240;51.096;5.878;2022-12-29T13:18:07;11.83;102.15
67358;HTU21D;54240;51.096;5.878;2022-12-29T13:21:02;11.86;105.08
67358;HTU21D;54240;51.096;5.878;2022-12-29T13:23:35;11.82;114.77
67358;HTU21D;54240;51.096;5.878;2022-12-29T13:26:14;11.72;113.61
67358;HTU21D;54240;51.096;5.878;2022-12-29T13:32:03;11.77;106.49
67358;HTU21D;54240;51.096;5.878;2022-12-29T13:37:49;11.63;118.99
67358;HTU21D;54240;51.096;5.878;2022-12-29T13:40:23;11.62;118.99
67358;HTU21D;54240;51.096;5.878;2022-12-29T13:42:51;11.73;118.99
67358;HTU21D;54240;51.096;5.878;2022-12-29T13:45:22;11.86;118.66
67358;HTU21D;54240;51.096;5.878;2022-12-29T13:50:25;11.62;118.99
67358;HTU21D;54240;51.096;5.878;2022-12-29T13:52:59;11.73;118.86
67358;HTU21D;54240;51.096;5.878;2022-12-29T13:55:40;11.71;118.99
67358;HTU21D;54240;51.096;5.878;2022-12-29T13:58:35;11.66;118.99
67358;HTU21D;54240;51.096;5.878;2022-12-29T14:04:13;11.44;118.99
67358;HTU21D;54240;51.096;5.878;2022-12-29T14:06:39;11.55;118.99
67358;HTU21D;54240;51.096;5.878;2022-12-29T14:11:54;11.49;118.99
67358;HTU21D;54240;51.096;5.878;2022-12-29T14:14:30;11.52;118.99
67358;HTU21D;54240;51.096;5.878;2022-12-29T14:17:23;11.44;118.99
67358;HTU21D;54240;51.096;5.878;2022-12-29T14:19:53;11.47;118.99
67358;HTU21D;54240;51.096;5.878;2022-12-29T14:22:27;11.45;118.99
67358;HTU21D;54240;51.096;5.878;2022-12-29T14:24:53;11.47;118.99
67358;HTU21D;54240;51.096;5.878;2022-12-29T14:29:47;11.24;118.99
67358;HTU21D;54240;51.096;5.878;2022-12-29T14:34:59;11.34;118.99
67358;HTU21D;54240;51.096;5.878;2022-12-29T14:37:30;11.29;118.99
67358;HTU21D;54240;51.096;5.878;2022-12-29T14:40:22;11.14;118.99
67358;HTU21D;54240;51.096;5.878;2022-12-29T14:42:57;11.26;118.99
67358;HTU21D;54240;51.096;5.878;2022-12-29T14:45:29;11.02;118.99
67358;HTU21D;54240;51.096;5.878;2022-12-29T14:47:56;10.94;118.99
67358;HTU21D;54240;51.096;5.878;2022-12-29T14:50:26;10.88;118.99
67358;HTU21D;54240;51.096;5.878;2022-12-29T14:53:04;10.78;118.99
67358;HTU21D;54240;51.096;5.878;2022-12-29T14:58:29;10.54;118.99
67358;HTU21D;54240;51.096;5.878;2022-12-29T15:00:58;10.46;118.99
67358;HTU21D;54240;51.096;5.878;2022-12-29T15:03:32;10.34;118.99
67358;HTU21D;54240;51.096;5.878;2022-12-29T15:06:12;10.31;118.99
67358;HTU21D;54240;51.096;5.878;2022-12-29T15:09:17;10.24;118.99
67358;HTU21D;54240;51.096;5.878;2022-12-29T15:11:53;10.29;118.99
67358;HTU21D;54240;51.096;5.878;2022-12-29T15:14:39;10.06;118.99
67358;HTU21D;54240;51.096;5.878;2022-12-29T15:17:21;10.06;118.99
67358;HTU21D;54240;51.096;5.878;2022-12-29T15:19:47;10.03;118.99
67358;HTU21D;54240;51.096;5.878;2022-12-29T15:22:14;9.95;118.99
67358;HTU21D;54240;51.096;5.878;2022-12-29T15:24:44;9.93;118.99
67358;HTU21D;54240;51.096;5.878;2022-12-29T15:27:15;9.81;118.99
67358;HTU21D;54240;51.096;5.878;2022-12-29T15:29:44;9.82;118.99
67358;HTU21D;54240;51.096;5.878;2022-12-29T15:32:20;9.71;118.99
67358;HTU21D;54240;51.096;5.878;2022-12-29T15:34:52;9.61;118.99
67358;HTU21D;54240;51.096;5.878;2022-12-29T15:37:33;9.63;118.99
67358;HTU21D;54240;51.096;5.878;2022-12-29T15:39:59;9.66;118.99
67358;HTU21D;54240;51.096;5.878;2022-12-29T15:42:59;9.81;118.99
67358;HTU21D;54240;51.096;5.878;2022-12-29T15:45:33;9.80;118.99
67358;HTU21D;54240;51.096;5.878;2022-12-29T15:48:00;9.84;118.99
67358;HTU21D;54240;51.096;5.878;2022-12-29T15:50:31;9.95;118.99
67358;HTU21D;54240;51.096;5.878;2022-12-29T15:52:59;10.05;118.99
67358;HTU21D;54240;51.096;5.878;2022-12-29T15:55:35;10.06;118.99
67358;HTU21D;54240;51.096;5.878;2022-12-29T15:58:04;10.07;118.99
67358;HTU21D;54240;51.096;5.878;2022-12-29T16:00:33;10.20;118.99
67358;HTU21D;54240;51.096;5.878;2022-12-29T16:03:02;10.21;118.99
67358;HTU21D;54240;51.096;5.878;2022-12-29T16:05:38;10.24;118.99
67358;HTU21D;54240;51.096;5.878;2022-12-29T16:10:55;10.26;118.99
67358;HTU21D;54240;51.096;5.878;2022-12-29T16:13:35;10.20;118.99
67358;HTU21D;54240;51.096;5.878;2022-12-29T16:16:31;10.08;118.99
67358;HTU21D;54240;51.096;5.878;2022-12-29T16:18:58;10.12;118.99
67358;HTU21D;54240;51.096;5.878;2022-12-29T16:21:33;9.95;118.99
67358;HTU21D;54240;51.096;5.878;2022-12-29T16:24:05;9.86;118.99
67358;HTU21D;54240;51.096;5.878;2022-12-29T16:26:32;9.92;118.99
67358;HTU21D;54240;51.096;5.878;2022-12-29T16:29:02;9.93;118.99
67358;HTU21D;54240;51.096;5.878;2022-12-29T16:31:36;10.01;118.99
67358;HTU21D;54240;51.096;5.878;2022-12-29T16:34:21;9.88;118.99
67358;HTU21D;54240;51.096;5.878;2022-12-29T16:37:28;9.98;118.99
67358;HTU21D;54240;51.096;5.878;2022-12-29T16:39:54;10.11;118.99
67358;HTU21D;54240;51.096;5.878;2022-12-29T16:50:32;8.29;118.99
67358;HTU21D;54240;51.096;5.878;2022-12-29T16:53:00;7.48;118.99
67358;HTU21D;54240;51.096;5.878;2022-12-29T16:55:27;6.95;118.99
67358;HTU21D;54240;51.096;5.878;2022-12-29T16:57:55;7.11;118.99
67358;HTU21D;54240;51.096;5.878;2022-12-29T17:00:24;7.09;118.99
67358;HTU21D;54240;51.096;5.878;2022-12-29T17:02:56;6.95;118.99
67358;HTU21D;54240;51.096;5.878;2022-12-29T17:05:23;6.89;118.99
67358;HTU21D;54240;51.096;5.878;2022-12-29T17:07:49;6.99;118.99
67358;HTU21D;54240;51.096;5.878;2022-12-29T17:10:16;6.95;118.99
67358;HTU21D;54240;51.096;5.878;2022-12-29T17:12:44;6.98;118.99
67358;HTU21D;54240;51.096;5.878;2022-12-29T17:15:27;6.82;118.99
67358;HTU21D;54240;51.096;5.878;2022-12-29T17:17:59;6.96;118.99
67358;HTU21D;54240;51.096;5.878;2022-12-29T17:20:30;6.97;118.99
67358;HTU21D;54240;51.096;5.878;2022-12-29T17:22:57;7.14;118.99
67358;HTU21D;54240;51.096;5.878;2022-12-29T17:25:36;7.33;118.99
67358;HTU21D;54240;51.096;5.878;2022-12-29T17:28:12;7.30;118.99
67358;HTU21D;54240;51.096;5.878;2022-12-29T17:30:42;7.37;118.99
67358;HTU21D;54240;51.096;5.878;2022-12-29T17:33:15;7.37;118.99
67358;HTU21D;54240;51.096;5.878;2022-12-29T17:35:41;7.46;118.99
67358;HTU21D;54240;51.096;5.878;2022-12-29T17:38:28;7.58;118.99
67358;HTU21D;54240;51.096;5.878;2022-12-29T17:40:55;7.54;118.99
67358;HTU21D;54240;51.096;5.878;2022-12-29T17:43:21;7.57;118.99
67358;HTU21D;54240;51.096;5.878;2022-12-29T17:45:56;7.63;118.99